Mount Perry, Ohio
Current Conditions -  °F | °C
As of 2:54 PM on Thursday 27 Nov 2014 (Local Time) from KVTA Reporting Station
Overcast Overcast  
Wind Chill: 23°   Ceiling: 3400
Heat Index: 32°   Visibility: 10mi
Dew Point: 22°   Wind: 12mph
Humidity: 66%   Direction: 300°WNW
Pressure: 30.19"   Gusts: NA
Location:  39.88°N, 82.22°W
Report Text: KVTA 271954Z AUTO 30010KT 10SM OVC034 00/M06 A3019 RMK AO2 SLP233 T00001056
Loading
Personal Weather Stations






























Interactive Weather Map New forecast layout! Learn more

10-Day Weather Forecast

Advertisements
Track Severe Weather on mobile